Pence, Wisconsin
Current Conditions -  °F | °C
As of 9:55 PM on Sunday 23 Nov 2014 (Local Time) from KIWD Reporting Station
Overcast Overcast  
Wind Chill: 36°   Ceiling: 200
Heat Index: 39°   Visibility: 0.5mi
Dew Point: 39°   Wind: 5mph
Humidity: 100%   Direction: 330°NNW
Pressure: 29.24"   Gusts: NA
Location:  46.3634°N, 90.2665°W
Report Text: KIWD 240355Z AUTO 33004KT 1/2SM OVC002 04/04 A2924 RMK AO1
Loading
Personal Weather Stations






























Interactive Weather Map New forecast layout! Learn more

10-Day Weather Forecast

Advertisements
Track Severe Weather on mobile